sensor_id;sensor_type;location;lat;lon;timestamp;pressure;altitude;pressure_sealevel;temperature;humidity
15998;BME280;8103;51.340;12.326;2023-03-26T00:01:33;99271.75;;;10.21;73.75
15998;BME280;8103;51.340;12.326;2023-03-26T00:04:04;99270.66;;;10.22;73.82
15998;BME280;8103;51.340;12.326;2023-03-26T00:06:36;99276.31;;;10.16;75.69
15998;BME280;8103;51.340;12.326;2023-03-26T00:09:08;99261.56;;;10.13;75.58
15998;BME280;8103;51.340;12.326;2023-03-26T00:11:35;99268.81;;;10.13;75.91
15998;BME280;8103;51.340;12.326;2023-03-26T00:14:02;99265.88;;;10.09;76.24
15998;BME280;8103;51.340;12.326;2023-03-26T00:16:31;99272.03;;;10.10;76.99
15998;BME280;8103;51.340;12.326;2023-03-26T00:18:59;99280.34;;;10.08;76.79
15998;BME280;8103;51.340;12.326;2023-03-26T00:21:29;99271.78;;;10.06;77.44
15998;BME280;8103;51.340;12.326;2023-03-26T00:24:00;99277.94;;;10.07;78.09
15998;BME280;8103;51.340;12.326;2023-03-26T00:26:32;99276.03;;;10.07;77.89
15998;BME280;8103;51.340;12.326;2023-03-26T00:29:00;99270.69;;;10.07;78.33
15998;BME280;8103;51.340;12.326;2023-03-26T00:31:29;99271.78;;;10.11;77.98
15998;BME280;8103;51.340;12.326;2023-03-26T00:33:56;99276.59;;;10.09;78.17
15998;BME280;8103;51.340;12.326;2023-03-26T00:36:24;99265.88;;;10.09;78.43
15998;BME280;8103;51.340;12.326;2023-03-26T00:38:55;99273.38;;;10.07;77.90
15998;BME280;8103;51.340;12.326;2023-03-26T00:41:24;99263.19;;;10.04;78.09
15998;BME280;8103;51.340;12.326;2023-03-26T00:43:56;99258.63;;;10.05;78.14
15998;BME280;8103;51.340;12.326;2023-03-26T00:46:27;99266.41;;;10.01;78.16
15998;BME280;8103;51.340;12.326;2023-03-26T00:48:55;99262.66;;;9.97;78.48
15998;BME280;8103;51.340;12.326;2023-03-26T00:51:26;99257.59;;;9.91;78.47
15998;BME280;8103;51.340;12.326;2023-03-26T00:53:54;99269.63;;;9.88;77.79
15998;BME280;8103;51.340;12.326;2023-03-26T00:56:23;99257.84;;;9.84;78.00
15998;BME280;8103;51.340;12.326;2023-03-26T00:58:50;99259.75;;;9.84;78.00
15998;BME280;8103;51.340;12.326;2023-03-26T01:01:23;99261.88;;;9.77;78.33
15998;BME280;8103;51.340;12.326;2023-03-26T01:04:24;99254.94;;;9.71;78.81
15998;BME280;8103;51.340;12.326;2023-03-26T01:06:54;99261.34;;;9.70;79.25
15998;BME280;8103;51.340;12.326;2023-03-26T01:09:32;99258.69;;;9.75;79.05
15998;BME280;8103;51.340;12.326;2023-03-26T01:12:06;99265.91;;;9.74;79.41
15998;BME280;8103;51.340;12.326;2023-03-26T01:14:34;99270.72;;;9.72;79.09
15998;BME280;8103;51.340;12.326;2023-03-26T01:17:05;99260.00;;;9.72;79.40
15998;BME280;8103;51.340;12.326;2023-03-26T01:19:46;99265.38;;;9.77;78.91
15998;BME280;8103;51.340;12.326;2023-03-26T01:22:20;99262.69;;;9.77;79.34
15998;BME280;8103;51.340;12.326;2023-03-26T01:24:50;99265.38;;;9.82;79.64
15998;BME280;8103;51.340;12.326;2023-03-26T01:27:46;99268.56;;;9.84;78.95
15998;BME280;8103;51.340;12.326;2023-03-26T01:33:01;99247.69;;;9.81;79.34
15998;BME280;8103;51.340;12.326;2023-03-26T01:36:04;99256.00;;;9.85;79.41
15998;BME280;8103;51.340;12.326;2023-03-26T01:41:44;99255.19;;;9.84;79.20
15998;BME280;8103;51.340;12.326;2023-03-26T01:44:33;99242.38;;;9.76;79.16
15998;BME280;8103;51.340;12.326;2023-03-26T01:47:06;99257.88;;;9.74;79.32
15998;BME280;8103;51.340;12.326;2023-03-26T01:49:33;99245.31;;;9.70;79.16
15998;BME280;8103;51.340;12.326;2023-03-26T01:52:00;99245.84;;;9.67;79.25
15998;BME280;8103;51.340;12.326;2023-03-26T01:54:30;99235.94;;;9.62;79.40
15998;BME280;8103;51.340;12.326;2023-03-26T02:03:12;99245.03;;;9.71;79.12
15998;BME280;8103;51.340;12.326;2023-03-26T02:06:05;99248.78;;;9.70;78.62
15998;BME280;8103;51.340;12.326;2023-03-26T02:08:50;99246.66;;;9.67;79.22
15998;BME280;8103;51.340;12.326;2023-03-26T02:11:18;99243.97;;;9.62;79.44
15998;BME280;8103;51.340;12.326;2023-03-26T02:13:45;99241.31;;;9.57;79.55
15998;BME280;8103;51.340;12.326;2023-03-26T02:16:15;99238.09;;;9.55;80.02
15998;BME280;8103;51.340;12.326;2023-03-26T02:18:46;99240.75;;;9.50;80.43
15998;BME280;8103;51.340;12.326;2023-03-26T02:21:21;99238.66;;;9.47;80.15
15998;BME280;8103;51.340;12.326;2023-03-26T02:23:51;99237.81;;;9.42;80.80
15998;BME280;8103;51.340;12.326;2023-03-26T02:26:24;99234.34;;;9.36;81.34
15998;BME280;8103;51.340;12.326;2023-03-26T02:28:51;99234.09;;;9.38;81.26
15998;BME280;8103;51.340;12.326;2023-03-26T02:31:18;99241.56;;;9.36;81.38
15998;BME280;8103;51.340;12.326;2023-03-26T02:33:45;99234.34;;;9.31;81.79
15998;BME280;8103;51.340;12.326;2023-03-26T02:36:13;99228.19;;;9.26;81.70
15998;BME280;8103;51.340;12.326;2023-03-26T02:38:41;99227.66;;;9.19;82.07
15998;BME280;8103;51.340;12.326;2023-03-26T02:41:08;99237.56;;;9.18;82.47
15998;BME280;8103;51.340;12.326;2023-03-26T02:43:35;99234.88;;;9.13;82.73
15998;BME280;8103;51.340;12.326;2023-03-26T02:46:02;99239.97;;;9.10;82.62
15998;BME280;8103;51.340;12.326;2023-03-26T02:48:29;99234.63;;;9.05;83.01
15998;BME280;8103;51.340;12.326;2023-03-26T02:50:57;99234.59;;;9.00;83.59
15998;BME280;8103;51.340;12.326;2023-03-26T02:53:23;99233.53;;;8.96;84.26
15998;BME280;8103;51.340;12.326;2023-03-26T02:55:57;99220.16;;;8.91;84.83
15998;BME280;8103;51.340;12.326;2023-03-26T02:58:25;99221.75;;;8.92;84.75
15998;BME280;8103;51.340;12.326;2023-03-26T03:00:52;99223.38;;;8.93;85.03
15998;BME280;8103;51.340;12.326;2023-03-26T03:03:27;99222.56;;;8.92;85.21
15998;BME280;8103;51.340;12.326;2023-03-26T03:05:56;99238.06;;;8.95;85.37
15998;BME280;8103;51.340;12.326;2023-03-26T03:08:26;99231.13;;;9.04;84.90
15998;BME280;8103;51.340;12.326;2023-03-26T03:10:59;99228.72;;;9.13;85.08
15998;BME280;8103;51.340;12.326;2023-03-26T03:13:27;99232.47;;;9.22;84.90
15998;BME280;8103;51.340;12.326;2023-03-26T03:15:55;99216.44;;;9.22;84.44
15998;BME280;8103;51.340;12.326;2023-03-26T03:18:22;99225.81;;;9.29;84.63
15998;BME280;8103;51.340;12.326;2023-03-26T03:20:49;99224.19;;;9.33;84.17
15998;BME280;8103;51.340;12.326;2023-03-26T03:23:15;99220.72;;;9.28;83.95
15998;BME280;8103;51.340;12.326;2023-03-26T03:25:42;99211.91;;;9.22;84.16
15998;BME280;8103;51.340;12.326;2023-03-26T03:28:10;99210.81;;;9.18;84.77
15998;BME280;8103;51.340;12.326;2023-03-26T03:30:37;99217.78;;;9.19;84.83
15998;BME280;8103;51.340;12.326;2023-03-26T03:33:04;99210.28;;;9.21;84.70
15998;BME280;8103;51.340;12.326;2023-03-26T03:35:31;99204.94;;;9.21;84.08
15998;BME280;8103;51.340;12.326;2023-03-26T03:37:59;99204.94;;;9.16;83.90
15998;BME280;8103;51.340;12.326;2023-03-26T03:40:26;99202.53;;;9.10;84.52
15998;BME280;8103;51.340;12.326;2023-03-26T03:42:53;99210.81;;;9.08;84.62
15998;BME280;8103;51.340;12.326;2023-03-26T03:45:19;99202.78;;;9.08;84.58
15998;BME280;8103;51.340;12.326;2023-03-26T03:47:46;99227.94;;;9.07;83.97
15998;BME280;8103;51.340;12.326;2023-03-26T03:50:13;99204.94;;;9.01;84.47
15998;BME280;8103;51.340;12.326;2023-03-26T03:52:40;99210.00;;;8.98;84.47
15998;BME280;8103;51.340;12.326;2023-03-26T03:55:07;99207.59;;;8.96;84.52
15998;BME280;8103;51.340;12.326;2023-03-26T03:57:36;99208.41;;;8.97;83.88
15998;BME280;8103;51.340;12.326;2023-03-26T04:00:03;99209.75;;;8.94;83.79
15998;BME280;8103;51.340;12.326;2023-03-26T04:02:32;99209.75;;;8.94;83.91
15998;BME280;8103;51.340;12.326;2023-03-26T04:05:02;99216.41;;;8.97;83.82
15998;BME280;8103;51.340;12.326;2023-03-26T04:07:30;99223.09;;;8.99;83.53
15998;BME280;8103;51.340;12.326;2023-03-26T04:09:59;99205.47;;;9.03;83.39
15998;BME280;8103;51.340;12.326;2023-03-26T04:12:28;99204.13;;;9.11;82.86
15998;BME280;8103;51.340;12.326;2023-03-26T04:14:57;99207.06;;;9.14;82.30
15998;BME280;8103;51.340;12.326;2023-03-26T04:17:24;99211.06;;;9.17;82.49
15998;BME280;8103;51.340;12.326;2023-03-26T04:19:51;99211.91;;;9.22;81.65
15998;BME280;8103;51.340;12.326;2023-03-26T04:22:18;99218.31;;;9.26;82.24
15998;BME280;8103;51.340;12.326;2023-03-26T04:24:45;99215.38;;;9.28;81.67
15998;BME280;8103;51.340;12.326;2023-03-26T04:27:19;99216.16;;;9.33;81.16
15998;BME280;8103;51.340;12.326;2023-03-26T04:29:48;99222.06;;;9.35;81.37
15998;BME280;8103;51.340;12.326;2023-03-26T04:32:28;99213.78;;;9.37;81.11
15998;BME280;8103;51.340;12.326;2023-03-26T04:34:57;99218.84;;;9.33;80.80
15998;BME280;8103;51.340;12.326;2023-03-26T04:37:36;99222.06;;;9.25;80.79
15998;BME280;8103;51.340;12.326;2023-03-26T04:40:19;99209.22;;;9.17;81.20
15998;BME280;8103;51.340;12.326;2023-03-26T04:42:47;99209.19;;;9.12;81.14
15998;BME280;8103;51.340;12.326;2023-03-26T04:45:17;99217.22;;;9.07;81.60
15998;BME280;8103;51.340;12.326;2023-03-26T04:47:48;99211.88;;;9.12;81.62
15998;BME280;8103;51.340;12.326;2023-03-26T04:50:16;99207.88;;;9.20;81.64
15998;BME280;8103;51.340;12.326;2023-03-26T04:52:43;99210.81;;;9.23;81.03
15998;BME280;8103;51.340;12.326;2023-03-26T04:55:28;99216.72;;;9.35;80.51
15998;BME280;8103;51.340;12.326;2023-03-26T04:57:58;99214.03;;;9.35;80.48
15998;BME280;8103;51.340;12.326;2023-03-26T05:00:25;99216.72;;;9.35;80.30
15998;BME280;8103;51.340;12.326;2023-03-26T05:02:53;99211.59;;;9.39;80.02
15998;BME280;8103;51.340;12.326;2023-03-26T05:05:25;99217.25;;;9.42;79.99
15998;BME280;8103;51.340;12.326;2023-03-26T05:07:52;99216.69;;;9.45;79.76
15998;BME280;8103;51.340;12.326;2023-03-26T05:10:20;99218.31;;;9.46;79.98
15998;BME280;8103;51.340;12.326;2023-03-26T05:12:48;99214.00;;;9.50;79.25
15998;BME280;8103;51.340;12.326;2023-03-26T05:15:15;99223.13;;;9.54;79.42
15998;BME280;8103;51.340;12.326;2023-03-26T05:17:42;99217.22;;;9.52;79.40
15998;BME280;8103;51.340;12.326;2023-03-26T05:20:19;99213.47;;;9.53;79.28
15998;BME280;8103;51.340;12.326;2023-03-26T05:22:48;99222.59;;;9.57;79.21
15998;BME280;8103;51.340;12.326;2023-03-26T05:29:22;99226.31;;;9.66;79.07
15998;BME280;8103;51.340;12.326;2023-03-26T05:31:49;99219.34;;;9.65;78.78
15998;BME280;8103;51.340;12.326;2023-03-26T05:34:16;99218.28;;;9.66;78.77
15998;BME280;8103;51.340;12.326;2023-03-26T05:36:43;99227.91;;;9.67;78.65
15998;BME280;8103;51.340;12.326;2023-03-26T05:39:10;99223.66;;;9.66;78.51
15998;BME280;8103;51.340;12.326;2023-03-26T05:41:36;99219.88;;;9.72;78.52
15998;BME280;8103;51.340;12.326;2023-03-26T05:44:03;99214.25;;;9.74;78.10
15998;BME280;8103;51.340;12.326;2023-03-26T05:46:30;99215.31;;;9.78;78.33
15998;BME280;8103;51.340;12.326;2023-03-26T05:48:57;99217.19;;;9.82;78.08
15998;BME280;8103;51.340;12.326;2023-03-26T05:51:24;99218.78;;;9.83;77.95
15998;BME280;8103;51.340;12.326;2023-03-26T05:53:51;99207.28;;;9.88;77.85
15998;BME280;8103;51.340;12.326;2023-03-26T05:56:17;99208.31;;;9.92;77.67
15998;BME280;8103;51.340;12.326;2023-03-26T05:58:44;99206.72;;;9.91;77.33
15998;BME280;8103;51.340;12.326;2023-03-26T06:01:13;99206.47;;;9.92;77.33
15998;BME280;8103;51.340;12.326;2023-03-26T06:03:44;99202.16;;;9.91;77.48
15998;BME280;8103;51.340;12.326;2023-03-26T06:06:15;99195.75;;;9.92;77.65
15998;BME280;8103;51.340;12.326;2023-03-26T06:08:48;99196.53;;;9.93;77.11
15998;BME280;8103;51.340;12.326;2023-03-26T06:11:28;99196.53;;;9.98;77.13
15998;BME280;8103;51.340;12.326;2023-03-26T06:13:57;99191.94;;;10.03;77.18
15998;BME280;8103;51.340;12.326;2023-03-26T06:16:23;99201.34;;;10.06;76.67
15998;BME280;8103;51.340;12.326;2023-03-26T06:22:58;99188.75;;;10.11;76.72
15998;BME280;8103;51.340;12.326;2023-03-26T06:25:25;99186.31;;;10.20;76.49
15998;BME280;8103;51.340;12.326;2023-03-26T06:27:52;99183.63;;;10.25;75.79
15998;BME280;8103;51.340;12.326;2023-03-26T06:30:19;99195.06;;;10.35;75.59
15998;BME280;8103;51.340;12.326;2023-03-26T06:32:47;99185.16;;;10.36;75.44
15998;BME280;8103;51.340;12.326;2023-03-26T06:35:14;99187.28;;;10.44;76.13
15998;BME280;8103;51.340;12.326;2023-03-26T06:37:41;99184.81;;;10.52;75.79
15998;BME280;8103;51.340;12.326;2023-03-26T06:40:08;99186.66;;;10.57;75.44
15998;BME280;8103;51.340;12.326;2023-03-26T06:42:36;99181.53;;;10.60;74.71
15998;BME280;8103;51.340;12.326;2023-03-26T06:45:22;99177.81;;;10.56;75.13
15998;BME280;8103;51.340;12.326;2023-03-26T06:47:49;99181.31;;;10.57;75.12
15998;BME280;8103;51.340;12.326;2023-03-26T06:50:16;99182.91;;;10.58;74.60
15998;BME280;8103;51.340;12.326;2023-03-26T06:52:43;99179.38;;;10.62;74.43
15998;BME280;8103;51.340;12.326;2023-03-26T06:55:10;99179.94;;;10.59;74.91
15998;BME280;8103;51.340;12.326;2023-03-26T06:57:38;99176.16;;;10.60;75.28
15998;BME280;8103;51.340;12.326;2023-03-26T07:00:05;99182.59;;;10.64;75.22
15998;BME280;8103;51.340;12.326;2023-03-26T07:02:35;99176.91;;;10.71;74.32
15998;BME280;8103;51.340;12.326;2023-03-26T07:05:02;99172.22;;;10.92;74.55
15998;BME280;8103;51.340;12.326;2023-03-26T07:07:29;99187.19;;;10.98;73.18
15998;BME280;8103;51.340;12.326;2023-03-26T07:09:56;99182.88;;;11.02;73.20
15998;BME280;8103;51.340;12.326;2023-03-26T07:12:24;99184.91;;;11.15;73.11
15998;BME280;8103;51.340;12.326;2023-03-26T07:14:52;99185.34;;;11.27;72.36
15998;BME280;8103;51.340;12.326;2023-03-26T07:17:19;99186.31;;;11.41;71.77
15998;BME280;8103;51.340;12.326;2023-03-26T07:19:45;99174.72;;;11.45;71.99
15998;BME280;8103;51.340;12.326;2023-03-26T07:22:19;99173.84;;;11.55;71.25
15998;BME280;8103;51.340;12.326;2023-03-26T07:24:48;99169.84;;;11.52;71.14
15998;BME280;8103;51.340;12.326;2023-03-26T07:27:36;99162.09;;;11.46;72.16
15998;BME280;8103;51.340;12.326;2023-03-26T07:30:24;99168.66;;;11.63;71.41
15998;BME280;8103;51.340;12.326;2023-03-26T07:33:06;99172.47;;;11.86;70.36
15998;BME280;8103;51.340;12.326;2023-03-26T07:36:08;99163.28;;;11.92;70.35
15998;BME280;8103;51.340;12.326;2023-03-26T07:46:00;99152.66;;;12.24;68.98
15998;BME280;8103;51.340;12.326;2023-03-26T07:48:38;99143.47;;;12.48;67.77
15998;BME280;8103;51.340;12.326;2023-03-26T07:51:07;99141.97;;;12.61;67.15
15998;BME280;8103;51.340;12.326;2023-03-26T07:53:34;99138.91;;;12.49;67.62
15998;BME280;8103;51.340;12.326;2023-03-26T07:56:11;99135.78;;;12.42;67.76
15998;BME280;8103;51.340;12.326;2023-03-26T07:58:55;99132.47;;;12.45;66.96
15998;BME280;8103;51.340;12.326;2023-03-26T08:02:02;99141.84;;;12.29;67.74
15998;BME280;8103;51.340;12.326;2023-03-26T08:05:23;99136.84;;;12.41;67.00
15998;BME280;8103;51.340;12.326;2023-03-26T08:08:15;99130.03;;;12.48;66.87
15998;BME280;8103;51.340;12.326;2023-03-26T08:14:19;99132.72;;;12.48;66.93
15998;BME280;8103;51.340;12.326;2023-03-26T08:19:53;99128.00;;;13.28;64.68
15998;BME280;8103;51.340;12.326;2023-03-26T08:22:33;99118.56;;;13.58;63.53
15998;BME280;8103;51.340;12.326;2023-03-26T08:25:32;99115.19;;;13.79;62.33
15998;BME280;8103;51.340;12.326;2023-03-26T08:31:35;99117.44;;;14.13;60.65
15998;BME280;8103;51.340;12.326;2023-03-26T08:34:02;99107.66;;;14.30;59.92
15998;BME280;8103;51.340;12.326;2023-03-26T08:36:29;99115.38;;;14.23;59.56
15998;BME280;8103;51.340;12.326;2023-03-26T08:38:56;99111.56;;;14.24;59.95
15998;BME280;8103;51.340;12.326;2023-03-26T08:50:26;99096.19;;;14.25;59.89
15998;BME280;8103;51.340;12.326;2023-03-26T08:53:49;99093.97;;;14.27;59.39
15998;BME280;8103;51.340;12.326;2023-03-26T09:09:07;99078.47;;;15.43;55.13
15998;BME280;8103;51.340;12.326;2023-03-26T09:18:43;99077.09;;;16.01;52.86
15998;BME280;8103;51.340;12.326;2023-03-26T09:24:17;99069.72;;;16.58;51.80
15998;BME280;8103;51.340;12.326;2023-03-26T09:26:59;99068.97;;;17.29;50.16
15998;BME280;8103;51.340;12.326;2023-03-26T09:36:21;99068.00;;;17.34;48.95
15998;BME280;8103;51.340;12.326;2023-03-26T09:42:35;99066.91;;;15.90;51.77
15998;BME280;8103;51.340;12.326;2023-03-26T09:45:42;99066.94;;;15.51;52.56
15998;BME280;8103;51.340;12.326;2023-03-26T09:51:22;99069.63;;;15.51;52.64
15998;BME280;8103;51.340;12.326;2023-03-26T10:06:34;99042.16;;;16.39;51.17
15998;BME280;8103;51.340;12.326;2023-03-26T10:09:39;99024.97;;;16.69;49.91
15998;BME280;8103;51.340;12.326;2023-03-26T10:12:38;99023.72;;;17.96;47.33
15998;BME280;8103;51.340;12.326;2023-03-26T10:15:59;99008.19;;;19.12;44.68
15998;BME280;8103;51.340;12.326;2023-03-26T10:19:13;99000.47;;;20.61;40.62
15998;BME280;8103;51.340;12.326;2023-03-26T10:22:10;98994.41;;;22.42;37.18
15998;BME280;8103;51.340;12.326;2023-03-26T10:25:42;98993.41;;;22.88;35.55
15998;BME280;8103;51.340;12.326;2023-03-26T10:28:31;98994.72;;;22.56;36.82
15998;BME280;8103;51.340;12.326;2023-03-26T10:31:49;98987.22;;;21.50;37.32
15998;BME280;8103;51.340;12.326;2023-03-26T10:34:48;99006.41;;;20.00;39.79
15998;BME280;8103;51.340;12.326;2023-03-26T10:41:40;98998.66;;;17.33;45.73
15998;BME280;8103;51.340;12.326;2023-03-26T10:44:48;98991.50;;;16.82;47.08
15998;BME280;8103;51.340;12.326;2023-03-26T10:53:44;98977.91;;;20.09;40.27
15998;BME280;8103;51.340;12.326;2023-03-26T10:56:34;98976.47;;;20.51;39.25
15998;BME280;8103;51.340;12.326;2023-03-26T10:59:11;98969.53;;;20.14;39.35
15998;BME280;8103;51.340;12.326;2023-03-26T11:04:54;98971.72;;;19.25;40.24
15998;BME280;8103;51.340;12.326;2023-03-26T11:07:43;98970.44;;;18.33;41.77
15998;BME280;8103;51.340;12.326;2023-03-26T11:13:11;98973.00;;;18.70;42.37
15998;BME280;8103;51.340;12.326;2023-03-26T11:15:58;98969.66;;;18.53;42.61
15998;BME280;8103;51.340;12.326;2023-03-26T11:18:44;98981.00;;;17.85;43.76
15998;BME280;8103;51.340;12.326;2023-03-26T11:21:33;98972.25;;;17.21;45.11
15998;BME280;8103;51.340;12.326;2023-03-26T11:27:26;98978.50;;;16.67;46.26
15998;BME280;8103;51.340;12.326;2023-03-26T11:32:53;98976.44;;;16.47;46.93
15998;BME280;8103;51.340;12.326;2023-03-26T11:35:36;98979.78;;;16.27;47.11
15998;BME280;8103;51.340;12.326;2023-03-26T11:40:53;98973.53;;;15.75;47.73
15998;BME280;8103;51.340;12.326;2023-03-26T11:43:28;98969.19;;;15.49;48.70
15998;BME280;8103;51.340;12.326;2023-03-26T11:45:56;98971.94;;;15.27;49.17
15998;BME280;8103;51.340;12.326;2023-03-26T11:48:39;98963.91;;;15.05;49.50
15998;BME280;8103;51.340;12.326;2023-03-26T11:51:28;98959.41;;;14.91;50.63
15998;BME280;8103;51.340;12.326;2023-03-26T11:53:56;98964.19;;;14.94;50.53
15998;BME280;8103;51.340;12.326;2023-03-26T11:56:56;98955.34;;;15.03;50.54
15998;BME280;8103;51.340;12.326;2023-03-26T12:02:39;98959.22;;;15.19;50.63
15998;BME280;8103;51.340;12.326;2023-03-26T12:09:17;98949.66;;;15.13;51.96
15998;BME280;8103;51.340;12.326;2023-03-26T12:11:48;98951.38;;;15.48;51.37
15998;BME280;8103;51.340;12.326;2023-03-26T12:18:26;98940.94;;;15.89;49.80
15998;BME280;8103;51.340;12.326;2023-03-26T12:21:08;98934.09;;;15.83;49.77
15998;BME280;8103;51.340;12.326;2023-03-26T12:30:25;98937.28;;;15.12;52.29
15998;BME280;8103;51.340;12.326;2023-03-26T12:33:35;98950.28;;;14.48;57.08
15998;BME280;8103;51.340;12.326;2023-03-26T12:38:42;98968.84;;;12.06;73.38
15998;BME280;8103;51.340;12.326;2023-03-26T12:41:15;98973.56;;;11.12;79.72
15998;BME280;8103;51.340;12.326;2023-03-26T12:44:27;98953.59;;;10.99;85.86
15998;BME280;8103;51.340;12.326;2023-03-26T12:47:24;98950.09;;;10.99;89.13
15998;BME280;8103;51.340;12.326;2023-03-26T12:50:14;98942.22;;;11.31;92.28
15998;BME280;8103;51.340;12.326;2023-03-26T12:52:56;98939.84;;;11.48;93.48
15998;BME280;8103;51.340;12.326;2023-03-26T12:55:58;98945.13;;;11.95;94.02
15998;BME280;8103;51.340;12.326;2023-03-26T12:59:00;98934.16;;;12.42;93.94
15998;BME280;8103;51.340;12.326;2023-03-26T13:02:00;98933.72;;;12.94;93.98
15998;BME280;8103;51.340;12.326;2023-03-26T13:05:02;98927.47;;;13.39;93.79
15998;BME280;8103;51.340;12.326;2023-03-26T13:08:04;98921.03;;;13.62;92.69
15998;BME280;8103;51.340;12.326;2023-03-26T13:17:03;98921.97;;;13.44;88.47
15998;BME280;8103;51.340;12.326;2023-03-26T13:28:47;98931.41;;;12.87;69.44
15998;BME280;8103;51.340;12.326;2023-03-26T13:31:43;98931.53;;;12.82;70.35
15998;BME280;8103;51.340;12.326;2023-03-26T13:34:42;98915.19;;;12.79;69.32
15998;BME280;8103;51.340;12.326;2023-03-26T13:37:38;98916.47;;;12.95;69.84
15998;BME280;8103;51.340;12.326;2023-03-26T13:40:32;98908.91;;;12.97;68.95
15998;BME280;8103;51.340;12.326;2023-03-26T13:49:10;98910.25;;;13.13;66.93
15998;BME280;8103;51.340;12.326;2023-03-26T13:51:44;98908.63;;;12.99;66.77
15998;BME280;8103;51.340;12.326;2023-03-26T13:54:38;98911.31;;;12.85;67.48
15998;BME280;8103;51.340;12.326;2023-03-26T13:57:23;98912.50;;;12.79;67.60
15998;BME280;8103;51.340;12.326;2023-03-26T14:00:03;98914.97;;;12.62;67.61
15998;BME280;8103;51.340;12.326;2023-03-26T14:02:42;98917.22;;;12.41;68.53
15998;BME280;8103;51.340;12.326;2023-03-26T14:05:29;98907.66;;;12.35;68.72
15998;BME280;8103;51.340;12.326;2023-03-26T14:08:33;98900.94;;;12.19;69.60
15998;BME280;8103;51.340;12.326;2023-03-26T14:11:46;98908.88;;;12.11;69.59
15998;BME280;8103;51.340;12.326;2023-03-26T14:14:54;98906.56;;;12.04;70.14
15998;BME280;8103;51.340;12.326;2023-03-26T14:20:34;98909.34;;;11.81;73.27
15998;BME280;8103;51.340;12.326;2023-03-26T14:26:40;98906.84;;;11.47;76.94
15998;BME280;8103;51.340;12.326;2023-03-26T14:29:50;98910.81;;;11.50;77.74
15998;BME280;8103;51.340;12.326;2023-03-26T14:36:03;98901.53;;;10.76;85.11
15998;BME280;8103;51.340;12.326;2023-03-26T14:38:59;98915.78;;;10.48;88.08
15998;BME280;8103;51.340;12.326;2023-03-26T14:44:37;98908.63;;;10.10;92.14
15998;BME280;8103;51.340;12.326;2023-03-26T14:47:21;98904.38;;;10.04;94.04
15998;BME280;8103;51.340;12.326;2023-03-26T14:50:29;98897.97;;;10.00;94.09
15998;BME280;8103;51.340;12.326;2023-03-26T14:53:13;98910.50;;;10.10;95.32
15998;BME280;8103;51.340;12.326;2023-03-26T14:59:35;98902.75;;;10.08;94.62
15998;BME280;8103;51.340;12.326;2023-03-26T15:16:15;98893.16;;;9.97;96.98
15998;BME280;8103;51.340;12.326;2023-03-26T15:28:45;98890.53;;;9.92;98.12
15998;BME280;8103;51.340;12.326;2023-03-26T15:31:49;98890.53;;;9.92;97.81
15998;BME280;8103;51.340;12.326;2023-03-26T15:53:35;98880.66;;;10.26;95.52
15998;BME280;8103;51.340;12.326;2023-03-26T15:59:46;98877.16;;;10.26;96.13
15998;BME280;8103;51.340;12.326;2023-03-26T16:03:16;98870.50;;;10.23;96.09
15998;BME280;8103;51.340;12.326;2023-03-26T16:06:22;98872.63;;;10.26;96.05
15998;BME280;8103;51.340;12.326;2023-03-26T16:09:15;98872.53;;;10.31;95.99
15998;BME280;8103;51.340;12.326;2023-03-26T16:11:58;98874.94;;;10.33;95.76
15998;BME280;8103;51.340;12.326;2023-03-26T16:17:07;98873.69;;;10.25;96.10
15998;BME280;8103;51.340;12.326;2023-03-26T16:22:54;98865.34;;;10.27;95.61
15998;BME280;8103;51.340;12.326;2023-03-26T16:25:34;98869.97;;;10.21;95.90
15998;BME280;8103;51.340;12.326;2023-03-26T16:28:30;98870.00;;;10.16;95.96
15998;BME280;8103;51.340;12.326;2023-03-26T16:37:43;98867.38;;;10.40;96.15
15998;BME280;8103;51.340;12.326;2023-03-26T16:48:56;98866.75;;;10.48;95.59
15998;BME280;8103;51.340;12.326;2023-03-26T16:52:00;98865.53;;;10.35;94.94
15998;BME280;8103;51.340;12.326;2023-03-26T16:58:07;98870.97;;;10.30;95.59
15998;BME280;8103;51.340;12.326;2023-03-26T17:01:27;98870.97;;;10.30;95.96
15998;BME280;8103;51.340;12.326;2023-03-26T17:04:05;98868.22;;;10.35;96.48
15998;BME280;8103;51.340;12.326;2023-03-26T17:07:12;98867.09;;;10.41;96.16
15998;BME280;8103;51.340;12.326;2023-03-26T17:22:02;98871.13;;;10.39;95.64
15998;BME280;8103;51.340;12.326;2023-03-26T17:30:48;98878.38;;;10.38;94.30
15998;BME280;8103;51.340;12.326;2023-03-26T17:33:31;98882.72;;;10.29;93.99
15998;BME280;8103;51.340;12.326;2023-03-26T17:36:29;98880.66;;;10.26;93.73
15998;BME280;8103;51.340;12.326;2023-03-26T17:39:04;98884.72;;;10.19;93.77
15998;BME280;8103;51.340;12.326;2023-03-26T17:41:53;98892.00;;;10.13;93.62
15998;BME280;8103;51.340;12.326;2023-03-26T17:44:47;98894.38;;;10.15;93.28
15998;BME280;8103;51.340;12.326;2023-03-26T17:47:37;98895.22;;;10.10;92.59
15998;BME280;8103;51.340;12.326;2023-03-26T17:50:23;98897.69;;;10.07;91.92
15998;BME280;8103;51.340;12.326;2023-03-26T17:53:02;98898.78;;;10.01;92.67
15998;BME280;8103;51.340;12.326;2023-03-26T17:55:36;98897.41;;;10.03;92.31
15998;BME280;8103;51.340;12.326;2023-03-26T17:58:22;98892.59;;;10.00;92.68
15998;BME280;8103;51.340;12.326;2023-03-26T18:01:03;98901.16;;;10.02;92.59
15998;BME280;8103;51.340;12.326;2023-03-26T18:03:41;98891.53;;;10.06;92.98
15998;BME280;8103;51.340;12.326;2023-03-26T18:09:36;98905.94;;;10.10;93.56
15998;BME280;8103;51.340;12.326;2023-03-26T18:18:19;98897.31;;;10.18;93.24
15998;BME280;8103;51.340;12.326;2023-03-26T18:20:50;98897.28;;;10.23;93.17
15998;BME280;8103;51.340;12.326;2023-03-26T18:23:29;98896.22;;;10.19;92.60
15998;BME280;8103;51.340;12.326;2023-03-26T18:26:19;98901.38;;;10.16;92.07
15998;BME280;8103;51.340;12.326;2023-03-26T18:28:54;98897.06;;;10.15;92.41
15998;BME280;8103;51.340;12.326;2023-03-26T18:31:33;98898.16;;;10.14;92.04
15998;BME280;8103;51.340;12.326;2023-03-26T18:34:16;98910.47;;;10.15;92.26
15998;BME280;8103;51.340;12.326;2023-03-26T18:36:50;98898.97;;;10.14;92.18
15998;BME280;8103;51.340;12.326;2023-03-26T18:39:25;98897.06;;;10.15;91.61